createdAt,value
2022-11-29T00:01:42.236Z,21.27
2022-11-29T00:04:12.324Z,26.10
2022-11-29T00:06:41.285Z,22.98
2022-11-29T00:09:12.749Z,15.93
2022-11-29T00:11:59.628Z,17.95
2022-11-29T00:14:30.008Z,15.43
2022-11-29T00:17:02.478Z,16.67
2022-11-29T00:19:33.797Z,12.82
2022-11-29T00:22:02.846Z,17.48
2022-11-29T00:24:32.821Z,18.95
2022-11-29T00:27:02.255Z,15.27
2022-11-29T00:29:31.409Z,18.10
2022-11-29T00:32:00.574Z,25.42
2022-11-29T00:34:29.303Z,15.88
2022-11-29T00:36:59.014Z,18.75
2022-11-29T00:39:27.440Z,13.70
2022-11-29T00:41:56.069Z,12.65
2022-11-29T00:44:24.330Z,14.23
2022-11-29T00:49:23.589Z,25.00
2022-11-29T00:51:52.351Z,21.17
2022-11-29T00:54:22.293Z,21.40
2022-11-29T00:56:50.552Z,21.50
2022-11-29T01:01:47.243Z,22.08
2022-11-29T01:04:15.716Z,20.15
2022-11-29T01:06:44.473Z,17.88
2022-11-29T01:09:12.855Z,19.45
2022-11-29T01:11:42.587Z,18.85
2022-11-29T01:14:13.663Z,15.90
2022-11-29T01:16:42.385Z,14.40
2022-11-29T01:19:10.883Z,15.20
2022-11-29T01:21:39.386Z,20.73
2022-11-29T01:24:07.777Z,17.65
2022-11-29T01:26:36.143Z,15.05
2022-11-29T01:29:05.995Z,17.27
2022-11-29T01:31:36.676Z,16.45
2022-11-29T01:34:06.901Z,15.93
2022-11-29T01:36:35.970Z,20.30
2022-11-29T01:39:06.375Z,14.90
2022-11-29T01:41:36.536Z,14.77
2022-11-29T01:44:09.057Z,20.08
2022-11-29T01:46:39.212Z,14.40
2022-11-29T01:49:12.850Z,12.68
2022-11-29T01:51:44.291Z,16.23
2022-11-29T01:54:14.510Z,18.42
2022-11-29T01:56:44.403Z,17.08
2022-11-29T01:59:17.150Z,12.15
2022-11-29T02:01:45.489Z,12.85
2022-11-29T02:04:14.736Z,9.00
2022-11-29T02:06:43.822Z,10.35
2022-11-29T02:09:20.079Z,12.43
2022-11-29T02:12:03.567Z,10.55
2022-11-29T02:14:57.237Z,12.48
2022-11-29T02:17:33.208Z,12.68
2022-11-29T02:20:31.734Z,11.38
2022-11-29T02:23:18.061Z,10.43
2022-11-29T02:26:03.362Z,10.13
2022-11-29T02:28:51.268Z,11.45
2022-11-29T02:31:54.707Z,9.55
2022-11-29T02:34:48.005Z,12.05
2022-11-29T02:37:37.478Z,9.20
2022-11-29T02:40:24.069Z,13.43
2022-11-29T02:43:12.389Z,11.73
2022-11-29T02:45:51.498Z,9.23
2022-11-29T02:48:42.693Z,11.50
2022-11-29T02:51:18.908Z,8.25
2022-11-29T02:53:56.690Z,9.35
2022-11-29T02:56:30.600Z,13.13
2022-11-29T02:59:04.849Z,10.73
2022-11-29T03:01:41.721Z,13.02
2022-11-29T03:04:16.802Z,9.38
2022-11-29T03:06:55.926Z,10.85
2022-11-29T03:09:33.975Z,9.27
2022-11-29T03:12:08.369Z,11.82
2022-11-29T03:14:47.947Z,12.38
2022-11-29T03:17:26.248Z,11.55
2022-11-29T03:20:08.691Z,11.05
2022-11-29T03:22:45.133Z,7.57
2022-11-29T03:25:19.825Z,11.93
2022-11-29T03:27:51.336Z,11.32
2022-11-29T03:30:22.104Z,11.25
2022-11-29T03:32:58.069Z,10.18
2022-11-29T03:35:34.033Z,11.82
2022-11-29T03:38:14.476Z,11.40
2022-11-29T03:40:50.688Z,8.48
2022-11-29T03:43:25.004Z,12.90
2022-11-29T03:45:59.657Z,8.60
2022-11-29T03:48:34.192Z,9.63
2022-11-29T03:51:07.042Z,11.30
2022-11-29T03:53:43.252Z,12.20
2022-11-29T03:56:28.306Z,7.43
2022-11-29T03:59:05.909Z,6.72
2022-11-29T04:02:11.569Z,11.50
2022-11-29T04:05:16.403Z,13.00
2022-11-29T04:07:56.588Z,9.63
2022-11-29T04:10:53.936Z,10.18
2022-11-29T04:13:58.991Z,7.38
2022-11-29T04:17:03.763Z,5.60
2022-11-29T04:20:01.595Z,6.90
2022-11-29T04:25:33.713Z,10.48
2022-11-29T04:28:27.303Z,7.05
2022-11-29T04:31:05.360Z,8.98
2022-11-29T04:36:31.013Z,6.22
2022-11-29T04:39:18.589Z,5.55
2022-11-29T04:42:09.723Z,6.18
2022-11-29T04:45:06.534Z,6.68
2022-11-29T04:47:56.790Z,5.97
2022-11-29T04:50:34.803Z,4.72
2022-11-29T04:53:30.944Z,5.18
2022-11-29T04:56:11.541Z,5.43
2022-11-29T04:58:47.422Z,7.57
2022-11-29T05:01:27.318Z,4.57
2022-11-29T05:04:03.343Z,3.63
2022-11-29T05:06:40.770Z,5.72
2022-11-29T05:09:20.421Z,4.40
2022-11-29T05:12:02.645Z,14.57
2022-11-29T05:14:42.559Z,2.85
2022-11-29T05:17:30.921Z,2.83
2022-11-29T05:22:54.218Z,18.02
2022-11-29T05:25:39.160Z,3.33
2022-11-29T05:28:13.583Z,5.07
2022-11-29T05:31:04.397Z,4.88
2022-11-29T05:34:00.378Z,4.63
2022-11-29T05:36:40.127Z,12.70
2022-11-29T05:39:32.482Z,5.85
2022-11-29T05:42:20.700Z,6.80
2022-11-29T05:44:54.257Z,5.43
2022-11-29T05:47:31.666Z,2.45
2022-11-29T05:50:07.164Z,5.72
2022-11-29T05:52:49.081Z,3.67
2022-11-29T05:55:31.025Z,5.22
2022-11-29T05:58:03.427Z,3.70
2022-11-29T06:00:42.258Z,6.95
2022-11-29T06:03:19.200Z,3.88
2022-11-29T06:05:54.055Z,5.40
2022-11-29T06:08:32.933Z,5.88
2022-11-29T06:11:06.783Z,4.15
2022-11-29T06:13:51.426Z,6.78
2022-11-29T06:17:02.009Z,3.45
2022-11-29T06:19:53.282Z,5.28
2022-11-29T06:22:35.059Z,5.40
2022-11-29T06:25:17.814Z,5.03
2022-11-29T06:28:05.878Z,4.78
